My Meet Scores
Nora Cosgrove, Flipstar Gymnastics Academy - MyMeetScores.com
Top100 | Top Teams | Upcoming Meets | Completed Meets | Latest | Add Scores | Help| Support | Bookmark and Share

Nora Cosgrove, Flipstar Gymnastics Academy
Personal Bests
LevelVault BarsBeamFloorAA
39.4759.000 9.0009.50036.450
49.4009.000 9.6009.42537.000
69.3258.750 9.5509.72536.925
Meet Scores
Date Meet Team Session Level Division Vault Bars Beam Floor AA
2019-03-15 Illinois State Championship Level 6,9,10 Flipstar Gymnastics Academy 9 6 SrD 9.125 7T 7.750 26 9.400 4T 9.675 2 35.950 10
2019-03-01 2019 MEGA Spring Invite Flipstar Gymnastics Academy All 6 All Ages 8.500 43T 8.750 33 9.200 25 9.375 10T 35.825 29T
2019-02-08 Midwest Twisters Harley Meet Womens Flipstar Gymnastics Academy O09 6 13 yrs. 8.550 13 8.400 7 8.775 7T 9.550 1 35.275 6
2019-01-25 King Arthur Invitational Flipstar Gymnastics Academy 12 6 SR B 7.700 13 8.350 5 9.100 7 9.425 3 34.575 6
2018-12-07 Horton Invite Flipstar Gymnastics Academy All 6 Sr 8.300 14 7.700 15 9.425 1 9.400 2 34.825 6
2018-03-16 2018 Illinois Level 6, 9, 10 State Championships Flipstar Gymnastics Academy 10 6 Jr C 9.325 5T 8.350 17 9.525 2 9.725 2 36.925 7T
2018-02-23 Kinetic Classic Flipstar Gymnastics Academy 9 6 Middle 9.000 28T 7.925 65 9.300 15T 9.500 16T 35.725 47
2018-02-16 Big Classic Flipstar Gymnastics Academy 1A 6 Junior C 9.050 5T 7.550 11 9.550 1 9.325 4T 35.475 10
2018-01-26 King Arthur Invitational Flipstar Gymnastics Academy 1 6 JR 9.275 1 7.850 16 8.950 13 9.200 11 35.275 12T
2017-12-08 Horton Invite At IWU Shirk Center Flipstar Gymnastics Academy All 6 Jr 9.250 2 8.325 10 9.000 6 9.350 8 35.925 5
2017-11-17 SCGA Classic Flipstar Gymnastics Academy 3 6 JrB 9.225 5 7.450 12 9.300 3 9.375 4 35.350 8
2017-03-10 2017 Illinois Level 4 State Championships Flipstar Gymnastics Academy 5 4 Jr D 9.100 4 8.875 13 9.600 2 9.425 1 37.000 2
2017-02-24 Kinetic Classic Flipstar Gymnastics Academy 5,6 4 All Ages 9.225 14* 9.000 55T 8.950 83T 9.300 22T 36.475 25T
2017-02-17 Big Classic Flipstar Gymnastics Academy B 4 Child C 9.100 7T 8.950 21T 9.475 3 9.100 10T 36.625 13
2017-02-10 IGI Chicago Style Gymnastics Meet Flipstar Gymnastics Academy 633L 4 JrC 9.000 8 8.875 11 9.200 9 9.100 5 36.175 8
2016-12-09 Horton Invitational Flipstar Gymnastics Academy 3 4 SrB 9.400 1 8.600 15 9.450 1 9.100 2 36.550 2
2016-11-11 2016 Illinois Judges Cup Flipstar Gymnastics Academy R4 4 10 Year ol 9.350 1 8.725 6 9.375 1 9.275 3 36.725 1
2016-03-10 2016 Illinois Level 4 State Meet Flipstar Gymnastics Academy All 4 Youth-E 9.200 5 8.700 16 9.100 12 9.300 6 36.300 11
2016-02-20 Big Classic Flipstar Gymnastics Academy 5B 4 Child C 9.150 1 8.975 11 9.400 3 9.050 6 36.575 5
2016-02-12 IGI Chicago Style Gymnastics Meet Flipstar Gymnastics Academy 611 4 JrB 9.225 2 8.600 11 9.225 7 8.450 18 35.500 9
2016-01-29 Circle Of Stars Gymnastics Invitational Flipstar Gymnastics Academy 2D14 4 10 8.950 1 8.700 4 9.150 2 8.100 8 34.900 3
2016-01-22 King Arthur Invitational Flipstar Gymnastics Academy S8 4 Jr.B 9.175 2 7.900 11 9.100 3 8.725 7 34.900 6
2015-12-11 St. Nick Invite Flipstar Gymnastics Academy 2B 4 Youth 8.700 7 7.950 16 9.025 8 8.650 7 34.325 10
2015-03-12 2015 Illinois Level 3 State Championship Flipstar Gymnastics Academy All 3 Junior-A 9.475 8 8.550 21 9.000 11 9.400 5 36.425 12
2015-02-21 BIG Classic Flipstar Gymnastics Academy 1A 3 Child C 9.300 2 8.300 7T 8.725 5T 9.400 1T 35.725 4
2015-02-13 IGI Chicago Style Gymnastics Meet Flipstar Gymnastics Academy 232 3 9 Yrs Old 9.250 11 8.850 16 8.800 15T 9.200 13T 36.100 14
2015-01-30 Circle Of Stars Gymnastics Invitational Flipstar Gymnastics Academy 2 3 9 9.100 42T 7.600 106 8.875 53T 9.500 7 35.075 63
2015-01-23 King Arthur Invitational Flipstar Gymnastics Academy 9A 3 Jr 9.375 2 9.000 5 8.975 4 9.100 5 36.450 4
2014-03-07 Illinois Level 3 State Meet Flipstar Gymnastics Academy 3 3 Child 9.425 11 8.825 22 8.800 18 9.100 14 36.150 10
2014-02-21 EGGS Invite Flipstar Gymnastics Academy 2 3 8yrs 9.475 6T 8.675 12 7.500 14 8.800 11 34.450 14
2014-02-07 IGI Chicago Style Gymnastics Meet Flipstar Gymnastics Academy 221 3 8 & Under 8.800 19T 8.200 30T 8.000 24T 8.950 30T 33.950 26
Get your scores on
a t-shirt, pin, or hoodie

www.lazysuits.com